createdAt,value
2018-12-21T00:01:44.769Z,76.35
2018-12-21T00:04:15.158Z,75.08
2018-12-21T00:06:45.859Z,70.17
2018-12-21T00:09:16.705Z,82.97
2018-12-21T00:11:47.575Z,76.50
2018-12-21T00:14:18.305Z,75.37
2018-12-21T00:16:49.068Z,72.53
2018-12-21T00:19:19.556Z,76.22
2018-12-21T00:21:50.206Z,77.00
2018-12-21T00:24:20.831Z,78.57
2018-12-21T00:26:51.647Z,68.83
2018-12-21T00:29:22.317Z,128.12
2018-12-21T00:31:57.968Z,74.62
2018-12-21T00:34:33.676Z,75.22
2018-12-21T00:37:09.374Z,76.07
2018-12-21T00:39:45.139Z,78.40
2018-12-21T00:42:19.672Z,77.78
2018-12-21T00:44:52.879Z,78.15
2018-12-21T00:47:23.371Z,70.90
2018-12-21T00:49:53.987Z,77.80
2018-12-21T00:52:24.763Z,70.85
2018-12-21T00:54:55.348Z,88.15
2018-12-21T00:57:25.991Z,90.92
2018-12-21T00:59:56.587Z,86.35
2018-12-21T01:02:27.289Z,85.95
2018-12-21T01:04:57.957Z,85.92
2018-12-21T01:07:28.750Z,81.65
2018-12-21T01:10:00.583Z,73.45
2018-12-21T01:12:31.283Z,79.97
2018-12-21T01:15:02.167Z,77.08
2018-12-21T01:17:33.949Z,78.97
2018-12-21T01:20:05.147Z,86.42
2018-12-21T01:22:35.619Z,73.10
2018-12-21T01:25:06.516Z,80.87
2018-12-21T01:27:37.191Z,64.85
2018-12-21T01:30:08.380Z,70.17
2018-12-21T01:32:39.095Z,68.70
2018-12-21T01:35:09.663Z,78.80
2018-12-21T01:37:40.303Z,77.53
2018-12-21T01:40:10.887Z,72.15
2018-12-21T01:42:41.706Z,77.85
2018-12-21T01:45:12.505Z,78.28
2018-12-21T01:47:43.046Z,67.60
2018-12-21T01:50:13.722Z,70.45
2018-12-21T01:52:44.477Z,65.83
2018-12-21T01:55:14.984Z,66.65
2018-12-21T01:57:45.575Z,61.15
2018-12-21T02:00:16.216Z,61.35
2018-12-21T02:02:46.893Z,62.45
2018-12-21T02:05:17.747Z,73.57
2018-12-21T02:07:48.408Z,64.03
2018-12-21T02:10:18.985Z,64.22
2018-12-21T02:12:49.542Z,70.03
2018-12-21T02:15:20.150Z,61.08
2018-12-21T02:17:50.954Z,63.58
2018-12-21T02:20:21.450Z,72.17
2018-12-21T02:22:52.075Z,61.75
2018-12-21T02:25:22.787Z,67.72
2018-12-21T02:27:53.484Z,63.13
2018-12-21T02:30:24.056Z,59.65
2018-12-21T02:32:54.652Z,61.08
2018-12-21T02:35:25.200Z,60.75
2018-12-21T02:37:55.912Z,57.03
2018-12-21T02:40:26.694Z,58.40
2018-12-21T02:42:57.379Z,53.28
2018-12-21T02:45:27.937Z,58.78
2018-12-21T02:47:58.604Z,63.30
2018-12-21T02:50:29.313Z,61.08
2018-12-21T02:53:00.100Z,67.30
2018-12-21T02:55:31.091Z,58.33
2018-12-21T02:58:01.863Z,56.63
2018-12-21T03:00:32.880Z,60.03
2018-12-21T03:03:03.838Z,61.50
2018-12-21T03:05:34.555Z,71.67
2018-12-21T03:08:05.304Z,64.82
2018-12-21T03:10:36.232Z,77.20
2018-12-21T03:13:07.037Z,71.72
2018-12-21T03:15:37.779Z,66.17
2018-12-21T03:18:08.364Z,66.25
2018-12-21T03:20:38.943Z,63.75
2018-12-21T03:23:09.505Z,63.40
2018-12-21T03:25:40.095Z,61.40
2018-12-21T03:28:10.886Z,77.80
2018-12-21T03:30:41.436Z,69.17
2018-12-21T03:33:12.150Z,71.20
2018-12-21T03:35:42.733Z,70.55
2018-12-21T03:38:13.365Z,78.10
2018-12-21T03:40:43.676Z,66.77
2018-12-21T03:43:14.434Z,77.80
2018-12-21T03:45:45.073Z,74.12
2018-12-21T03:48:15.826Z,72.25
2018-12-21T03:50:46.438Z,84.50
2018-12-21T03:53:16.978Z,71.57
2018-12-21T03:55:47.570Z,68.57
2018-12-21T03:58:18.207Z,64.80
2018-12-21T04:00:48.874Z,67.05
2018-12-21T04:03:19.503Z,72.30
2018-12-21T04:05:50.157Z,74.45
2018-12-21T04:08:20.796Z,66.95
2018-12-21T04:10:51.564Z,60.50
2018-12-21T04:13:22.228Z,55.70
2018-12-21T04:15:52.928Z,56.63
2018-12-21T04:18:23.562Z,59.27
2018-12-21T04:20:54.397Z,56.37
2018-12-21T04:23:25.016Z,55.23
2018-12-21T04:25:55.660Z,51.73
2018-12-21T04:28:26.323Z,53.98
2018-12-21T04:30:56.747Z,56.73
2018-12-21T04:33:27.378Z,57.75
2018-12-21T04:35:57.925Z,58.80
2018-12-21T04:38:28.553Z,62.23
2018-12-21T04:40:59.082Z,63.40
2018-12-21T04:43:29.692Z,62.93
2018-12-21T04:46:00.304Z,66.12
2018-12-21T04:48:31.095Z,61.85
2018-12-21T04:51:01.759Z,57.48
2018-12-21T04:53:32.101Z,62.80
2018-12-21T04:56:02.935Z,59.95
2018-12-21T04:58:33.480Z,61.23
2018-12-21T05:01:04.084Z,58.85
2018-12-21T05:03:34.512Z,63.75
2018-12-21T05:06:04.776Z,61.00
2018-12-21T05:08:35.151Z,61.08
2018-12-21T05:11:05.761Z,70.17
2018-12-21T05:13:36.330Z,71.35
2018-12-21T05:16:06.950Z,77.37
2018-12-21T05:18:38.247Z,60.75
2018-12-21T05:21:08.796Z,65.20
2018-12-21T05:23:39.249Z,64.32
2018-12-21T05:26:09.712Z,65.60
2018-12-21T05:28:40.258Z,67.17
2018-12-21T05:31:10.812Z,67.37
2018-12-21T05:33:41.521Z,61.30
2018-12-21T05:36:11.977Z,66.42
2018-12-21T05:38:42.700Z,59.05
2018-12-21T05:41:13.376Z,61.73
2018-12-21T05:43:44.047Z,64.50
2018-12-21T05:46:14.747Z,61.35
2018-12-21T05:48:45.175Z,68.50
2018-12-21T05:51:15.486Z,71.97
2018-12-21T05:53:46.052Z,60.23
2018-12-21T05:56:16.851Z,62.15
2018-12-21T05:58:47.493Z,54.38
2018-12-21T06:01:18.163Z,93.45
2018-12-21T06:03:48.950Z,60.58
2018-12-21T06:06:19.621Z,64.85
2018-12-21T06:08:50.469Z,60.90
2018-12-21T06:11:21.353Z,66.60
2018-12-21T06:13:52.036Z,65.47
2018-12-21T06:16:22.803Z,63.78
2018-12-21T06:18:53.486Z,64.15
2018-12-21T06:21:24.085Z,83.78
2018-12-21T06:23:54.823Z,65.00
2018-12-21T06:26:25.452Z,69.32
2018-12-21T06:28:56.189Z,69.75
2018-12-21T06:31:26.799Z,89.92
2018-12-21T06:33:57.465Z,78.37
2018-12-21T06:36:27.756Z,72.20
2018-12-21T06:38:58.537Z,75.15
2018-12-21T06:41:29.044Z,84.40
2018-12-21T06:43:59.640Z,65.17
2018-12-21T06:46:30.447Z,57.50
2018-12-21T06:49:00.982Z,54.75
2018-12-21T06:51:31.458Z,57.95
2018-12-21T06:54:02.161Z,57.78
2018-12-21T06:56:32.933Z,60.43
2018-12-21T06:59:03.637Z,74.00
2018-12-21T07:01:34.113Z,67.37
2018-12-21T07:04:04.642Z,69.67
2018-12-21T07:06:35.364Z,65.65
2018-12-21T07:09:07.740Z,68.17
2018-12-21T07:11:38.384Z,73.22
2018-12-21T07:14:09.058Z,76.07
2018-12-21T07:16:39.706Z,78.57
2018-12-21T07:19:10.347Z,76.47
2018-12-21T07:21:40.886Z,78.28
2018-12-21T07:24:11.286Z,71.10
2018-12-21T07:26:41.707Z,73.90
2018-12-21T07:29:12.114Z,73.22
2018-12-21T07:31:42.728Z,68.02
2018-12-21T07:34:13.475Z,75.22
2018-12-21T07:36:44.358Z,88.72
2018-12-21T07:39:14.964Z,76.05
2018-12-21T07:41:45.374Z,78.17
2018-12-21T07:44:16.102Z,79.15
2018-12-21T07:46:46.815Z,90.17
2018-12-21T07:49:17.389Z,82.40
2018-12-21T07:51:48.082Z,81.37
2018-12-21T07:54:18.924Z,84.00
2018-12-21T07:56:49.619Z,84.60
2018-12-21T07:59:20.227Z,82.15
2018-12-21T08:01:50.894Z,82.55
2018-12-21T08:04:21.553Z,79.17
2018-12-21T08:06:52.255Z,79.55
2018-12-21T08:09:22.787Z,75.70
2018-12-21T08:11:53.426Z,77.08
2018-12-21T08:14:24.155Z,77.90
2018-12-21T08:16:54.867Z,78.20
2018-12-21T08:19:25.555Z,86.57
2018-12-21T08:21:56.020Z,81.82
2018-12-21T08:24:26.771Z,84.72
2018-12-21T08:26:57.511Z,77.95
2018-12-21T08:29:27.993Z,82.55
2018-12-21T08:31:58.587Z,91.35
2018-12-21T08:34:29.307Z,96.53
2018-12-21T08:37:00.126Z,91.63
2018-12-21T08:39:30.718Z,82.92
2018-12-21T08:42:01.252Z,92.60
2018-12-21T08:44:32.268Z,87.42
2018-12-21T08:47:02.961Z,92.53
2018-12-21T08:49:39.901Z,84.40
2018-12-21T08:52:10.708Z,90.83
2018-12-21T08:54:41.226Z,99.20
2018-12-21T08:57:11.858Z,95.53
2018-12-21T08:59:42.662Z,90.62
2018-12-21T09:02:13.093Z,87.53
2018-12-21T09:04:43.748Z,94.92
2018-12-21T09:07:14.268Z,92.42
2018-12-21T09:09:45.110Z,92.33
2018-12-21T09:12:15.701Z,96.08
2018-12-21T09:14:46.368Z,107.67
2018-12-21T09:17:17.091Z,92.62
2018-12-21T09:19:47.659Z,87.80
2018-12-21T09:22:18.247Z,86.85
2018-12-21T09:24:49.067Z,94.15
2018-12-21T09:27:19.828Z,100.80
2018-12-21T09:29:50.469Z,83.52
2018-12-21T09:32:21.096Z,80.87
2018-12-21T09:34:51.931Z,76.20
2018-12-21T09:37:22.792Z,68.95
2018-12-21T09:39:53.449Z,68.28
2018-12-21T09:42:24.583Z,71.72
2018-12-21T09:44:55.528Z,68.75
2018-12-21T09:47:26.308Z,70.52
2018-12-21T09:49:57.121Z,82.80
2018-12-21T09:52:27.872Z,76.47
2018-12-21T09:54:58.502Z,75.45
2018-12-21T09:57:29.148Z,95.90
2018-12-21T09:59:59.814Z,80.42
2018-12-21T10:02:35.753Z,92.60
2018-12-21T10:05:03.463Z,90.12
2018-12-21T10:07:33.989Z,98.00
2018-12-21T10:10:05.012Z,100.50
2018-12-21T10:12:35.717Z,100.40
2018-12-21T10:15:07.502Z,96.97
2018-12-21T10:17:37.886Z,97.33
2018-12-21T10:20:09.976Z,87.85
2018-12-21T10:22:40.675Z,89.47
2018-12-21T10:25:11.436Z,90.90
2018-12-21T10:27:42.138Z,84.75
2018-12-21T10:30:12.842Z,89.67
2018-12-21T10:32:43.165Z,86.55
2018-12-21T10:35:14.001Z,91.15
2018-12-21T10:37:44.891Z,86.87
2018-12-21T10:40:15.404Z,91.60
2018-12-21T10:42:45.979Z,95.60
2018-12-21T10:45:16.813Z,96.97
2018-12-21T10:47:47.552Z,86.97
2018-12-21T10:50:18.489Z,100.62
2018-12-21T10:52:49.063Z,103.83
2018-12-21T10:55:19.711Z,116.30
2018-12-21T10:57:50.346Z,103.12
2018-12-21T11:00:21.563Z,104.27
2018-12-21T11:02:52.125Z,94.85
2018-12-21T11:05:22.777Z,88.10
2018-12-21T11:07:53.609Z,92.53
2018-12-21T11:10:24.450Z,91.80
2018-12-21T11:12:55.268Z,92.67
2018-12-21T11:15:26.195Z,89.05
2018-12-21T11:17:57.049Z,84.67
2018-12-21T11:20:27.795Z,86.20
2018-12-21T11:22:58.839Z,89.20
2018-12-21T11:25:29.591Z,89.72
2018-12-21T11:28:00.210Z,88.92
2018-12-21T11:30:30.878Z,91.50
2018-12-21T11:33:01.559Z,96.90
2018-12-21T11:35:32.541Z,90.35
2018-12-21T11:38:03.596Z,98.85
2018-12-21T11:40:34.396Z,99.92
2018-12-21T11:43:05.082Z,99.83
2018-12-21T11:45:35.621Z,93.55
2018-12-21T11:48:06.380Z,93.70
2018-12-21T11:50:36.966Z,97.17
2018-12-21T11:53:07.813Z,97.42
2018-12-21T11:55:38.361Z,92.27
2018-12-21T11:58:09.173Z,101.00
2018-12-21T12:00:39.856Z,98.25
2018-12-21T12:03:10.746Z,102.45
2018-12-21T12:05:41.532Z,105.65
2018-12-21T12:08:12.081Z,109.45
2018-12-21T12:10:42.644Z,110.75
2018-12-21T12:13:13.200Z,112.37
2018-12-21T12:15:44.036Z,115.35
2018-12-21T12:18:14.614Z,112.85
2018-12-21T12:20:45.356Z,115.60
2018-12-21T12:23:16.276Z,119.05
2018-12-21T12:25:46.963Z,108.00
2018-12-21T12:28:17.523Z,110.63
2018-12-21T12:30:48.367Z,117.70
2018-12-21T12:33:19.147Z,112.32
2018-12-21T12:35:49.943Z,109.70
2018-12-21T12:38:20.665Z,107.03
2018-12-21T12:40:51.150Z,111.62
2018-12-21T12:43:21.904Z,109.60
2018-12-21T12:45:52.552Z,106.43
2018-12-21T12:48:23.235Z,101.10
2018-12-21T12:50:54.024Z,102.62
2018-12-21T12:53:24.576Z,102.55
2018-12-21T12:55:55.449Z,100.40
2018-12-21T12:58:25.971Z,91.65
2018-12-21T13:00:56.736Z,102.30
2018-12-21T13:03:27.111Z,114.28
2018-12-21T13:05:57.631Z,112.12
2018-12-21T13:08:28.284Z,107.65
2018-12-21T13:10:59.053Z,111.25
2018-12-21T13:13:29.993Z,105.40
2018-12-21T13:16:00.714Z,117.03
2018-12-21T13:18:31.314Z,102.02
2018-12-21T13:21:02.167Z,105.63
2018-12-21T13:23:32.798Z,105.58
2018-12-21T13:26:03.460Z,114.17
2018-12-21T13:28:34.217Z,109.22
2018-12-21T13:31:05.702Z,104.92
2018-12-21T13:33:36.238Z,102.22
2018-12-21T13:36:07.837Z,102.72
2018-12-21T13:38:38.465Z,103.70
2018-12-21T13:41:09.353Z,102.90
2018-12-21T13:43:39.883Z,110.35
2018-12-21T13:46:10.605Z,115.55
2018-12-21T13:48:41.313Z,115.88
2018-12-21T13:51:12.243Z,116.00
2018-12-21T13:53:42.957Z,119.77
2018-12-21T13:56:13.589Z,118.87
2018-12-21T13:58:44.333Z,116.75
2018-12-21T14:01:15.072Z,112.28
2018-12-21T14:03:45.755Z,109.87
2018-12-21T14:06:17.204Z,115.65
2018-12-21T14:08:47.804Z,121.42
2018-12-21T14:11:18.575Z,128.05
2018-12-21T14:13:49.166Z,118.45
2018-12-21T14:16:19.992Z,113.80
2018-12-21T14:18:50.777Z,107.83
2018-12-21T14:21:21.624Z,99.28
2018-12-21T14:23:52.376Z,104.25
2018-12-21T14:26:22.979Z,107.83
2018-12-21T14:28:53.701Z,101.12
2018-12-21T14:31:24.518Z,96.35
2018-12-21T14:33:54.872Z,89.60
2018-12-21T14:36:25.390Z,93.75
2018-12-21T14:38:55.920Z,89.97
2018-12-21T14:41:26.372Z,92.33
2018-12-21T14:43:56.696Z,90.65
2018-12-21T14:46:27.418Z,91.45
2018-12-21T14:48:58.140Z,87.50
2018-12-21T14:51:28.850Z,90.35
2018-12-21T14:53:59.515Z,105.47
2018-12-21T14:56:30.042Z,100.47
2018-12-21T14:59:00.682Z,101.70
2018-12-21T15:01:31.140Z,94.42
2018-12-21T15:04:01.756Z,94.30
2018-12-21T15:06:32.355Z,92.88
2018-12-21T15:09:03.204Z,95.20
2018-12-21T15:11:34.719Z,92.88
2018-12-21T15:14:05.369Z,94.37
2018-12-21T15:16:35.904Z,96.47
2018-12-21T15:19:06.746Z,107.90
2018-12-21T15:21:37.514Z,97.22
2018-12-21T15:24:07.980Z,118.93
2018-12-21T15:26:38.494Z,130.65
2018-12-21T15:29:09.272Z,139.45
2018-12-21T15:31:39.714Z,142.62
2018-12-21T15:34:10.417Z,141.50
2018-12-21T15:36:40.901Z,148.80
2018-12-21T15:39:11.567Z,144.05
2018-12-21T15:41:42.251Z,137.57
2018-12-21T15:44:12.879Z,133.35
2018-12-21T15:46:43.954Z,139.55
2018-12-21T15:49:14.748Z,152.80
2018-12-21T15:51:46.202Z,139.28
2018-12-21T15:54:16.705Z,135.22
2018-12-21T15:56:47.631Z,137.10
2018-12-21T15:59:18.422Z,142.77
2018-12-21T16:01:48.924Z,129.30
2018-12-21T16:04:19.420Z,127.00
2018-12-21T16:06:51.036Z,126.62
2018-12-21T16:09:22.278Z,124.10
2018-12-21T16:11:53.024Z,121.25
2018-12-21T16:14:23.591Z,124.10
2018-12-21T16:16:54.415Z,120.00
2018-12-21T16:19:24.900Z,117.60
2018-12-21T16:21:55.643Z,120.62
2018-12-21T16:24:26.453Z,125.82
2018-12-21T16:26:57.139Z,134.27
2018-12-21T16:29:27.898Z,132.50
2018-12-21T16:31:58.570Z,126.30
2018-12-21T16:34:29.074Z,120.57
2018-12-21T16:36:59.699Z,125.70
2018-12-21T16:39:30.312Z,123.20
2018-12-21T16:42:01.078Z,120.97
2018-12-21T16:44:31.668Z,126.92
2018-12-21T16:47:02.373Z,134.93
2018-12-21T16:49:33.158Z,143.50
2018-12-21T16:52:04.065Z,147.13
2018-12-21T16:54:34.428Z,147.43
2018-12-21T16:57:05.137Z,136.92
2018-12-21T16:59:35.663Z,137.35
2018-12-21T17:02:06.352Z,133.95
2018-12-21T17:04:37.154Z,127.58
2018-12-21T17:07:07.795Z,126.53
2018-12-21T17:09:38.291Z,131.75
2018-12-21T17:12:15.229Z,127.62
2018-12-21T17:14:45.943Z,127.12
2018-12-21T17:17:16.476Z,125.53
2018-12-21T17:19:47.060Z,128.50
2018-12-21T17:22:17.721Z,132.82
2018-12-21T17:24:48.487Z,157.10
2018-12-21T17:27:19.147Z,135.88
2018-12-21T17:29:49.917Z,146.55
2018-12-21T17:32:20.648Z,144.37
2018-12-21T17:34:51.097Z,147.05
2018-12-21T17:37:21.728Z,145.22
2018-12-21T17:39:52.016Z,136.97
2018-12-21T17:42:22.637Z,143.87
2018-12-21T17:44:53.511Z,153.40
2018-12-21T17:47:24.284Z,136.60
2018-12-21T17:49:54.946Z,143.00
2018-12-21T17:52:26.463Z,148.40
2018-12-21T17:54:57.148Z,143.57
2018-12-21T17:57:27.687Z,143.25
2018-12-21T17:59:58.304Z,146.20
2018-12-21T18:02:29.148Z,135.25
2018-12-21T18:04:59.996Z,134.00
2018-12-21T18:07:30.758Z,137.77
2018-12-21T18:10:01.661Z,142.93
2018-12-21T18:12:32.414Z,154.78
2018-12-21T18:15:03.155Z,154.23
2018-12-21T18:17:33.886Z,145.50
2018-12-21T18:20:04.570Z,147.62
2018-12-21T18:22:35.271Z,176.85
2018-12-21T18:25:13.319Z,166.88
2018-12-21T18:27:45.548Z,159.67
2018-12-21T18:30:22.641Z,150.68
2018-12-21T18:32:53.437Z,159.52
2018-12-21T18:35:24.456Z,169.62
2018-12-21T18:38:02.236Z,191.12
2018-12-21T18:40:33.433Z,172.90
2018-12-21T18:43:04.316Z,174.60
2018-12-21T18:45:34.944Z,193.52
2018-12-21T18:48:05.656Z,154.95
2018-12-21T18:50:36.696Z,147.45
2018-12-21T18:53:07.419Z,151.00
2018-12-21T18:55:38.108Z,154.07
2018-12-21T18:58:08.588Z,166.40
2018-12-21T19:00:39.202Z,169.70
2018-12-21T19:03:09.934Z,156.05
2018-12-21T19:05:40.507Z,171.90
2018-12-21T19:08:11.305Z,151.50
2018-12-21T19:10:41.923Z,207.27
2018-12-21T19:13:12.669Z,170.75
2018-12-21T19:15:43.007Z,167.32
2018-12-21T19:18:13.931Z,159.37
2018-12-21T19:20:44.444Z,152.47
2018-12-21T19:23:15.275Z,157.37
2018-12-21T19:25:46.027Z,160.37
2018-12-21T19:28:17.014Z,179.18
2018-12-21T19:30:47.804Z,181.55
2018-12-21T19:33:18.660Z,164.52
2018-12-21T19:35:49.471Z,196.75
2018-12-21T19:38:21.308Z,160.15
2018-12-21T19:40:52.097Z,169.90
2018-12-21T19:43:28.070Z,210.60
2018-12-21T19:45:55.486Z,152.62
2018-12-21T19:48:26.234Z,201.65
2018-12-21T19:50:57.128Z,186.52
2018-12-21T19:53:28.425Z,207.45
2018-12-21T19:56:16.317Z,197.57
2018-12-21T19:58:47.108Z,239.05
2018-12-21T20:01:17.980Z,230.98
2018-12-21T20:03:48.513Z,195.75
2018-12-21T20:06:19.134Z,176.22
2018-12-21T20:08:49.817Z,184.52
2018-12-21T20:11:20.598Z,165.68
2018-12-21T20:13:51.387Z,203.62
2018-12-21T20:16:21.958Z,214.88
2018-12-21T20:18:53.024Z,195.60
2018-12-21T20:21:24.679Z,194.50
2018-12-21T20:23:55.444Z,191.57
2018-12-21T20:26:26.330Z,202.95
2018-12-21T20:28:56.987Z,210.15
2018-12-21T20:31:27.601Z,205.70
2018-12-21T20:33:57.972Z,200.35
2018-12-21T20:36:28.666Z,177.75
2018-12-21T20:38:59.323Z,170.82
2018-12-21T20:41:30.051Z,168.50
2018-12-21T20:44:00.770Z,172.60
2018-12-21T20:46:31.479Z,170.10
2018-12-21T20:49:01.960Z,172.25
2018-12-21T20:51:32.663Z,175.82
2018-12-21T20:54:03.347Z,188.80
2018-12-21T20:56:33.899Z,195.03
2018-12-21T20:59:08.558Z,200.75
2018-12-21T21:01:40.181Z,177.70
2018-12-21T21:04:10.930Z,233.38
2018-12-21T21:06:41.764Z,225.28
2018-12-21T21:09:13.428Z,227.90
2018-12-21T21:11:44.461Z,223.32
2018-12-21T21:14:16.346Z,236.45
2018-12-21T21:16:46.854Z,249.70
2018-12-21T21:19:17.594Z,238.72
2018-12-21T21:21:48.546Z,220.70
2018-12-21T21:24:19.411Z,218.75
2018-12-21T21:26:50.294Z,229.68
2018-12-21T21:29:20.770Z,200.28
2018-12-21T21:31:51.363Z,207.07
2018-12-21T21:34:21.913Z,244.10
2018-12-21T21:36:52.511Z,197.22
2018-12-21T21:39:23.406Z,217.13
2018-12-21T21:41:54.284Z,220.55
2018-12-21T21:44:25.002Z,207.75
2018-12-21T21:46:55.534Z,203.27
2018-12-21T21:49:26.050Z,243.75
2018-12-21T21:51:56.793Z,195.57
2018-12-21T21:54:27.554Z,171.98
2018-12-21T21:56:58.170Z,157.97
2018-12-21T21:59:28.841Z,199.95
2018-12-21T22:01:59.191Z,171.35
2018-12-21T22:04:29.850Z,189.15
2018-12-21T22:07:00.642Z,170.25
2018-12-21T22:09:31.566Z,183.45
2018-12-21T22:12:04.002Z,178.60
2018-12-21T22:14:34.540Z,204.15
2018-12-21T22:17:05.235Z,193.17
2018-12-21T22:19:36.018Z,179.68
2018-12-21T22:22:06.566Z,205.90
2018-12-21T22:24:37.135Z,206.82
2018-12-21T22:27:07.785Z,198.28
2018-12-21T22:29:38.566Z,183.45
2018-12-21T22:32:09.118Z,189.93
2018-12-21T22:34:39.677Z,206.97
2018-12-21T22:37:10.200Z,214.78
2018-12-21T22:39:40.837Z,209.92
2018-12-21T22:42:11.602Z,237.75
2018-12-21T22:44:42.264Z,171.43
2018-12-21T22:47:12.964Z,171.43
2018-12-21T22:49:43.353Z,193.65
2018-12-21T22:52:14.112Z,200.03
2018-12-21T22:54:44.795Z,201.32
2018-12-21T22:57:15.474Z,184.90
2018-12-21T22:59:46.044Z,190.82
2018-12-21T23:02:16.532Z,205.27
2018-12-21T23:04:47.172Z,157.20
2018-12-21T23:07:17.824Z,188.05
2018-12-21T23:09:48.346Z,168.45
2018-12-21T23:12:18.804Z,151.37
2018-12-21T23:14:49.511Z,171.50
2018-12-21T23:17:19.931Z,149.02
2018-12-21T23:19:50.363Z,142.87
2018-12-21T23:22:21.117Z,133.60
2018-12-21T23:24:51.732Z,124.25
2018-12-21T23:27:22.485Z,127.67
2018-12-21T23:29:52.982Z,119.13
2018-12-21T23:32:23.692Z,139.77
2018-12-21T23:34:54.371Z,139.80
2018-12-21T23:37:24.840Z,141.95
2018-12-21T23:39:55.518Z,139.32
2018-12-21T23:42:25.874Z,126.27
2018-12-21T23:44:56.339Z,131.65
2018-12-21T23:47:26.782Z,105.43
2018-12-21T23:49:57.409Z,101.82
2018-12-21T23:52:28.112Z,92.17
2018-12-21T23:54:58.607Z,94.20
2018-12-21T23:57:29.206Z,93.75
2018-12-21T23:59:59.863Z,89.50
